Terminal Aerodrome Forecast
Issued by NWS

Home | Current Version | Previous Version | Text Only | Print | Product List | Glossary On
Versions: 1 2 3 4 5 6 7 8 9 10 11 12 13 14 15 16 17 18 19 20 21 22 23 24 25 26 27 28 29 30 31 32 33 34 35 36 37 38 39 40 41 42
000
FTUS46 KPQR 180520
TAFONP
TAF
KONP 180520Z 1806/1906 34010KT P6SM FEW015
     FM180900 VRB03KT P6SM BKN012
     FM181600 35009KT P6SM SCT015
     FM182100 35015G22KT P6SM SKC=

USA.gov is the U.S. government's official web portal to all federal, state and local government web resources and services.